Terminal Aerodrome Forecast
Issued by NWS

Home | Current Version | Previous Version | Text Only | Print | Product List | Glossary On
Versions: 1 2 3 4 5 6 7 8 9 10 11 12
000
FTUS45 KREV 181700
TAFMMH
TAF
KMMH 181738Z 1818/1918 13008KT P6SM FEW150
     FM182000 26012G25KT P6SM SCT070 SCT120
     FM190300 29011KT P6SM BKN080=

USA.gov is the U.S. government's official web portal to all federal, state and local government web resources and services.